createdAt,value
2022-08-17T00:02:21.188Z,3.28
2022-08-17T00:05:42.369Z,3.37
2022-08-17T00:08:48.562Z,2.93
2022-08-17T00:12:03.970Z,3.37
2022-08-17T00:15:19.793Z,3.10
2022-08-17T00:19:01.528Z,3.10
2022-08-17T00:22:32.711Z,3.20
2022-08-17T00:25:15.731Z,3.50
2022-08-17T00:28:19.513Z,3.50
2022-08-17T00:31:25.205Z,3.40
2022-08-17T00:34:27.937Z,3.53
2022-08-17T00:37:33.058Z,3.40
2022-08-17T00:40:44.744Z,3.37
2022-08-17T00:43:49.538Z,3.67
2022-08-17T00:46:52.150Z,3.15
2022-08-17T00:49:55.434Z,3.10
2022-08-17T00:52:58.439Z,3.30
2022-08-17T00:56:03.838Z,2.80
2022-08-17T00:59:09.711Z,3.40
2022-08-17T01:02:16.275Z,3.10
2022-08-17T01:05:22.385Z,3.55
2022-08-17T01:08:28.056Z,3.53
2022-08-17T01:11:33.238Z,3.70
2022-08-17T01:14:38.029Z,3.37
2022-08-17T01:17:46.792Z,3.53
2022-08-17T01:21:01.278Z,3.37
2022-08-17T01:24:04.608Z,3.30
2022-08-17T01:27:10.092Z,3.33
2022-08-17T01:30:57.810Z,3.78
2022-08-17T01:33:37.911Z,2.87
2022-08-17T01:36:43.394Z,3.00
2022-08-17T01:39:55.309Z,3.20
2022-08-17T01:43:12.467Z,2.80
2022-08-17T01:46:22.287Z,3.40
2022-08-17T01:49:25.455Z,3.05
2022-08-17T01:52:29.024Z,3.20
2022-08-17T01:55:40.717Z,3.92
2022-08-17T01:58:46.467Z,3.43
2022-08-17T02:01:53.753Z,3.60
2022-08-17T02:04:56.845Z,3.58
2022-08-17T02:08:00.911Z,3.85
2022-08-17T02:11:12.407Z,3.80
2022-08-17T02:14:15.645Z,3.63
2022-08-17T02:17:19.203Z,3.40
2022-08-17T02:20:41.159Z,3.12
2022-08-17T02:23:49.011Z,3.20
2022-08-17T02:26:51.789Z,3.70
2022-08-17T02:29:58.164Z,2.80
2022-08-17T02:33:04.181Z,3.00
2022-08-17T02:36:12.688Z,2.97
2022-08-17T02:39:15.668Z,3.00
2022-08-17T02:42:25.739Z,3.10
2022-08-17T02:45:30.108Z,3.00
2022-08-17T02:48:33.240Z,2.50
2022-08-17T02:51:36.901Z,2.72
2022-08-17T02:54:42.388Z,2.80
2022-08-17T02:57:47.320Z,2.53
2022-08-17T03:00:50.762Z,2.67
2022-08-17T03:03:54.108Z,2.85
2022-08-17T03:06:57.285Z,2.60
2022-08-17T03:10:01.603Z,2.97
2022-08-17T03:13:05.207Z,2.92
2022-08-17T03:16:09.207Z,3.27
2022-08-17T03:19:12.685Z,3.17
2022-08-17T03:22:36.128Z,3.60
2022-08-17T03:25:43.359Z,2.92
2022-08-17T03:28:46.812Z,3.47
2022-08-17T03:31:50.926Z,3.03
2022-08-17T03:35:01.036Z,3.80
2022-08-17T03:38:05.474Z,3.33
2022-08-17T03:41:08.673Z,2.72
2022-08-17T03:44:12.183Z,2.75
2022-08-17T03:47:33.213Z,2.70
2022-08-17T03:50:56.420Z,2.80
2022-08-17T03:54:18.615Z,2.60
2022-08-17T03:57:21.762Z,2.80
2022-08-17T04:00:26.649Z,2.50
2022-08-17T04:03:32.889Z,2.73
2022-08-17T04:06:36.502Z,2.78
2022-08-17T04:09:39.721Z,3.03
2022-08-17T04:12:45.971Z,2.95
2022-08-17T04:15:50.123Z,2.70
2022-08-17T04:18:53.617Z,3.30
2022-08-17T04:22:00.915Z,2.80
2022-08-17T04:25:10.347Z,3.08
2022-08-17T04:28:15.990Z,3.20
2022-08-17T04:31:20.019Z,2.85
2022-08-17T04:34:24.890Z,2.87
2022-08-17T04:37:27.494Z,2.55
2022-08-17T04:40:50.348Z,2.90
2022-08-17T04:43:56.360Z,2.95
2022-08-17T04:47:00.074Z,2.90
2022-08-17T04:50:04.328Z,2.90
2022-08-17T04:53:08.875Z,2.90
2022-08-17T04:56:17.008Z,2.75
2022-08-17T04:59:23.068Z,2.80
2022-08-17T05:02:26.920Z,2.55
2022-08-17T05:05:32.779Z,2.83
2022-08-17T05:08:35.921Z,2.70
2022-08-17T05:11:39.852Z,3.03
2022-08-17T05:14:48.984Z,2.80
2022-08-17T05:17:52.702Z,2.72
2022-08-17T05:20:56.807Z,3.00
2022-08-17T05:24:00.561Z,3.28
2022-08-17T05:27:06.534Z,3.40
2022-08-17T05:30:10.881Z,2.92
2022-08-17T05:33:22.006Z,3.03
2022-08-17T05:36:43.063Z,3.00
2022-08-17T05:39:47.228Z,2.80
2022-08-17T05:42:50.898Z,3.05
2022-08-17T05:46:03.587Z,2.87
2022-08-17T05:49:08.213Z,2.72
2022-08-17T05:52:20.162Z,3.30
2022-08-17T05:55:43.577Z,3.42
2022-08-17T05:59:05.202Z,3.30
2022-08-17T06:02:47.463Z,2.97
2022-08-17T06:06:10.201Z,3.20
2022-08-17T06:09:30.200Z,3.10
2022-08-17T06:12:59.029Z,3.28
2022-08-17T06:16:32.930Z,3.20
2022-08-17T06:19:42.167Z,3.47
2022-08-17T06:22:48.577Z,3.62
2022-08-17T06:25:56.062Z,3.50
2022-08-17T06:29:18.784Z,3.67
2022-08-17T06:32:25.590Z,3.60
2022-08-17T06:35:40.312Z,3.87
2022-08-17T06:39:25.439Z,3.42
2022-08-17T06:43:02.055Z,4.03
2022-08-17T06:46:12.837Z,3.75
2022-08-17T06:49:33.236Z,3.58
2022-08-17T06:52:49.935Z,3.67
2022-08-17T06:56:09.210Z,3.20
2022-08-17T06:59:18.349Z,4.30
2022-08-17T07:02:53.081Z,4.28
2022-08-17T07:06:24.956Z,4.05
2022-08-17T07:09:37.813Z,3.78
2022-08-17T07:12:43.559Z,3.90
2022-08-17T07:15:48.104Z,3.40
2022-08-17T07:18:53.191Z,4.10
2022-08-17T07:22:00.625Z,3.78
2022-08-17T07:25:08.137Z,3.60
2022-08-17T07:28:13.891Z,3.87
2022-08-17T07:31:17.878Z,3.83
2022-08-17T07:34:20.733Z,3.97
2022-08-17T07:37:24.894Z,4.03
2022-08-17T07:40:33.665Z,3.87
2022-08-17T07:43:40.155Z,3.58
2022-08-17T07:47:12.698Z,3.10
2022-08-17T07:50:35.016Z,3.97
2022-08-17T07:53:39.220Z,3.87
2022-08-17T07:56:47.771Z,3.90
2022-08-17T08:00:00.068Z,3.83
2022-08-17T08:03:35.306Z,3.87
2022-08-17T08:06:49.743Z,4.75
2022-08-17T08:10:13.903Z,4.37
2022-08-17T08:13:28.985Z,4.32
2022-08-17T08:16:32.106Z,4.43
2022-08-17T08:19:35.437Z,4.67
2022-08-17T08:22:49.052Z,4.50
2022-08-17T08:26:20.951Z,4.68
2022-08-17T08:29:40.602Z,4.20
2022-08-17T08:33:22.091Z,5.10
2022-08-17T08:37:02.128Z,4.47
2022-08-17T08:39:59.045Z,4.93
2022-08-17T08:43:12.690Z,5.15
2022-08-17T08:46:32.411Z,5.10
2022-08-17T08:50:37.554Z,4.70
2022-08-17T08:53:50.653Z,4.80
2022-08-17T08:57:23.290Z,4.90
2022-08-17T09:00:26.989Z,5.47
2022-08-17T09:04:17.891Z,5.53
2022-08-17T09:07:38.623Z,5.28
2022-08-17T09:11:02.490Z,5.37
2022-08-17T09:14:25.522Z,5.18
2022-08-17T09:18:30.685Z,5.47
2022-08-17T09:21:55.936Z,5.62
2022-08-17T09:25:21.790Z,4.97
2022-08-17T09:28:38.202Z,5.17
2022-08-17T09:31:52.659Z,5.05
2022-08-17T09:35:00.335Z,5.00
2022-08-17T09:38:55.387Z,5.03
2022-08-17T09:42:07.671Z,5.35
2022-08-17T09:45:30.448Z,5.60
2022-08-17T09:48:36.393Z,6.43
2022-08-17T09:51:43.787Z,5.82
2022-08-17T09:54:47.370Z,5.53
2022-08-17T09:57:53.152Z,5.30
2022-08-17T10:01:21.741Z,5.40
2022-08-17T10:04:40.936Z,5.00
2022-08-17T10:08:21.835Z,4.87
2022-08-17T10:11:54.857Z,5.00
2022-08-17T10:15:17.401Z,4.70
2022-08-17T10:18:34.361Z,4.77
2022-08-17T10:22:01.122Z,4.70
2022-08-17T10:25:37.575Z,4.60
2022-08-17T10:28:49.221Z,4.37
2022-08-17T10:31:59.539Z,4.72
2022-08-17T10:35:11.646Z,4.50
2022-08-17T10:38:27.563Z,4.62
2022-08-17T10:41:41.259Z,4.28
2022-08-17T10:45:04.599Z,3.47
2022-08-17T10:48:07.871Z,4.40
2022-08-17T10:51:13.680Z,4.17
2022-08-17T10:54:25.692Z,4.20
2022-08-17T10:57:34.472Z,4.30
2022-08-17T11:00:40.882Z,3.70
2022-08-17T11:03:54.834Z,4.57
2022-08-17T11:07:21.559Z,4.33
2022-08-17T11:11:03.275Z,4.00
2022-08-17T11:14:19.174Z,4.00
2022-08-17T11:17:41.520Z,4.70
2022-08-17T11:21:02.241Z,4.55
2022-08-17T11:24:09.788Z,3.97
2022-08-17T11:27:35.164Z,4.85
2022-08-17T11:30:51.274Z,4.70
2022-08-17T11:34:04.689Z,4.90
2022-08-17T11:37:26.648Z,4.70
2022-08-17T11:40:52.668Z,4.60
2022-08-17T11:44:29.977Z,4.40
2022-08-17T11:48:26.496Z,4.03
2022-08-17T11:51:54.871Z,4.43
2022-08-17T11:55:17.655Z,4.40
2022-08-17T11:58:39.028Z,4.40
2022-08-17T12:01:55.963Z,4.22
2022-08-17T12:05:15.472Z,4.93
2022-08-17T12:08:21.365Z,4.78
2022-08-17T12:11:55.101Z,4.40
2022-08-17T12:15:15.669Z,4.53
2022-08-17T12:18:30.474Z,4.70
2022-08-17T12:21:51.866Z,4.47
2022-08-17T12:25:00.730Z,4.50
2022-08-17T12:28:07.581Z,4.20
2022-08-17T12:31:44.636Z,4.03
2022-08-17T12:34:50.133Z,4.20
2022-08-17T12:37:53.345Z,3.75
2022-08-17T12:41:00.304Z,4.28
2022-08-17T12:44:24.165Z,4.87
2022-08-17T12:47:30.080Z,4.47
2022-08-17T12:50:41.042Z,4.43
2022-08-17T12:53:52.619Z,4.72
2022-08-17T12:57:03.079Z,4.32
2022-08-17T13:00:16.375Z,4.65
2022-08-17T13:03:26.469Z,4.33
2022-08-17T13:06:34.949Z,4.03
2022-08-17T13:09:40.718Z,4.45
2022-08-17T13:12:44.160Z,4.50
2022-08-17T13:15:53.792Z,4.03
2022-08-17T13:19:15.964Z,4.77
2022-08-17T13:22:23.576Z,3.95
2022-08-17T13:25:27.171Z,4.30
2022-08-17T13:28:36.043Z,4.55
2022-08-17T13:31:49.783Z,3.92
2022-08-17T13:35:15.572Z,4.00
2022-08-17T13:38:51.040Z,3.60
2022-08-17T13:41:56.325Z,3.70
2022-08-17T13:45:00.102Z,3.45
2022-08-17T13:48:17.531Z,3.90
2022-08-17T13:51:29.412Z,4.30
2022-08-17T13:54:35.363Z,3.42
2022-08-17T13:57:40.352Z,3.80
2022-08-17T14:00:44.791Z,3.97
2022-08-17T14:03:48.150Z,3.90
2022-08-17T14:06:58.307Z,3.80
2022-08-17T14:10:12.736Z,3.83
2022-08-17T14:13:16.211Z,3.55
2022-08-17T14:16:20.762Z,3.72
2022-08-17T14:19:25.383Z,3.40
2022-08-17T14:22:31.945Z,3.57
2022-08-17T14:25:34.996Z,3.72
2022-08-17T14:28:38.924Z,3.55
2022-08-17T14:31:59.267Z,3.87
2022-08-17T14:35:04.611Z,3.65
2022-08-17T14:38:08.609Z,3.70
2022-08-17T14:41:11.774Z,3.60
2022-08-17T14:44:16.727Z,3.40
2022-08-17T14:47:20.807Z,3.42
2022-08-17T14:50:27.264Z,3.55
2022-08-17T14:53:32.034Z,3.33
2022-08-17T14:56:37.852Z,3.45
2022-08-17T14:59:41.598Z,3.90
2022-08-17T15:02:56.176Z,3.35
2022-08-17T15:05:59.665Z,3.20
2022-08-17T15:09:03.386Z,3.13
2022-08-17T15:12:07.484Z,3.30
2022-08-17T15:15:12.658Z,3.37
2022-08-17T15:18:16.486Z,3.10
2022-08-17T15:21:20.277Z,3.12
2022-08-17T15:24:24.047Z,3.00
2022-08-17T15:27:32.517Z,3.50
2022-08-17T15:30:37.029Z,3.58
2022-08-17T15:33:40.169Z,3.60
2022-08-17T15:36:49.044Z,3.28
2022-08-17T15:39:53.774Z,3.37
2022-08-17T15:42:57.934Z,3.42
2022-08-17T15:46:12.480Z,3.35
2022-08-17T15:49:17.214Z,3.37
2022-08-17T15:52:23.349Z,3.25
2022-08-17T15:55:28.667Z,3.00
2022-08-17T15:58:34.538Z,3.40
2022-08-17T16:03:01.200Z,2.95
2022-08-17T16:05:13.838Z,3.20
2022-08-17T16:08:21.333Z,3.10
2022-08-17T16:11:28.368Z,2.97
2022-08-17T16:14:33.942Z,3.60
2022-08-17T16:17:41.555Z,3.62
2022-08-17T16:20:46.035Z,3.40
2022-08-17T16:23:52.192Z,3.65
2022-08-17T16:26:55.602Z,3.47
2022-08-17T16:29:59.997Z,3.20
2022-08-17T16:33:06.078Z,3.17
2022-08-17T16:36:09.508Z,2.95
2022-08-17T16:39:13.520Z,2.83
2022-08-17T16:42:25.547Z,3.00
2022-08-17T16:45:40.003Z,3.00
2022-08-17T16:48:46.488Z,3.30
2022-08-17T16:51:49.925Z,3.20
2022-08-17T16:54:55.456Z,3.37
2022-08-17T16:57:58.841Z,3.20
2022-08-17T17:01:01.935Z,2.85
2022-08-17T17:04:06.203Z,2.75
2022-08-17T17:07:20.880Z,2.85
2022-08-17T17:10:29.784Z,2.67
2022-08-17T17:13:47.516Z,2.80
2022-08-17T17:17:13.648Z,2.97
2022-08-17T17:20:25.338Z,2.72
2022-08-17T17:23:54.744Z,2.65
2022-08-17T17:27:29.673Z,2.62
2022-08-17T17:30:42.768Z,2.73
2022-08-17T17:33:54.345Z,2.70
2022-08-17T17:37:03.443Z,2.17
2022-08-17T17:40:14.737Z,2.70
2022-08-17T17:43:38.262Z,3.20
2022-08-17T17:46:45.309Z,2.90
2022-08-17T17:49:52.659Z,2.75
2022-08-17T17:53:04.992Z,2.65
2022-08-17T17:56:43.169Z,3.00
2022-08-17T18:00:11.262Z,2.85
2022-08-17T18:03:42.760Z,2.83
2022-08-17T18:07:16.256Z,2.72
2022-08-17T18:10:49.262Z,2.83
2022-08-17T18:14:31.709Z,2.80
2022-08-17T18:17:36.530Z,2.83
2022-08-17T18:20:53.985Z,2.60
2022-08-17T18:24:02.470Z,2.47
2022-08-17T18:27:23.507Z,2.50
2022-08-17T18:30:29.982Z,2.60
2022-08-17T18:33:33.782Z,2.30
2022-08-17T18:36:39.889Z,2.40
2022-08-17T18:39:43.186Z,2.50
2022-08-17T18:43:11.167Z,2.50
2022-08-17T18:46:29.635Z,2.20
2022-08-17T18:49:34.261Z,2.83
2022-08-17T18:52:38.054Z,2.80
2022-08-17T18:55:42.850Z,2.33
2022-08-17T18:59:04.632Z,2.40
2022-08-17T19:02:24.876Z,2.53
2022-08-17T19:05:39.730Z,2.40
2022-08-17T19:08:44.432Z,2.27
2022-08-17T19:11:48.176Z,2.25
2022-08-17T19:14:53.145Z,2.40
2022-08-17T19:18:02.507Z,2.22
2022-08-17T19:21:38.373Z,2.28
2022-08-17T19:24:47.498Z,2.20
2022-08-17T19:28:22.535Z,2.20
2022-08-17T19:31:28.612Z,2.00
2022-08-17T19:34:34.672Z,2.67
2022-08-17T19:37:57.348Z,2.42
2022-08-17T19:41:24.020Z,2.10
2022-08-17T19:44:51.713Z,2.87
2022-08-17T19:48:14.873Z,2.50
2022-08-17T19:51:24.566Z,2.10
2022-08-17T19:54:38.220Z,2.70
2022-08-17T19:58:11.444Z,2.73
2022-08-17T20:01:34.836Z,2.58
2022-08-17T20:04:43.796Z,2.45
2022-08-17T20:07:56.834Z,2.35
2022-08-17T20:11:09.882Z,2.90
2022-08-17T20:14:41.391Z,2.27
2022-08-17T20:18:00.516Z,2.35
2022-08-17T20:21:27.572Z,2.87
2022-08-17T20:24:43.411Z,2.37
2022-08-17T20:28:22.028Z,2.47
2022-08-17T20:31:57.411Z,2.63
2022-08-17T20:35:27.736Z,2.37
2022-08-17T20:38:50.460Z,2.72
2022-08-17T20:42:08.091Z,2.87
2022-08-17T20:45:25.021Z,2.53
2022-08-17T20:48:38.288Z,2.70
2022-08-17T20:52:07.995Z,2.30
2022-08-17T20:55:51.181Z,3.60
2022-08-17T20:58:56.552Z,3.53
2022-08-17T21:02:18.702Z,3.25
2022-08-17T21:05:30.256Z,3.47
2022-08-17T21:08:34.919Z,3.53
2022-08-17T21:11:57.091Z,3.42
2022-08-17T21:15:09.103Z,3.20
2022-08-17T21:18:38.987Z,3.50
2022-08-17T21:21:46.602Z,3.00
2022-08-17T21:25:02.701Z,3.45
2022-08-17T21:28:23.350Z,3.50
2022-08-17T21:31:42.181Z,2.60
2022-08-17T21:35:08.961Z,2.60
2022-08-17T21:38:14.949Z,2.67
2022-08-17T21:41:35.219Z,2.62
2022-08-17T21:44:47.693Z,2.85
2022-08-17T21:48:09.008Z,2.80
2022-08-17T21:51:26.167Z,3.12
2022-08-17T21:54:35.938Z,2.90
2022-08-17T21:57:41.498Z,2.92
2022-08-17T22:01:18.051Z,2.75
2022-08-17T22:04:46.142Z,3.42
2022-08-17T22:07:51.370Z,3.50
2022-08-17T22:11:04.043Z,3.73
2022-08-17T22:14:17.554Z,3.95
2022-08-17T22:17:30.878Z,4.35
2022-08-17T22:20:34.834Z,4.35
2022-08-17T22:24:02.344Z,4.90
2022-08-17T22:27:11.660Z,4.70
2022-08-17T22:30:23.348Z,4.85
2022-08-17T22:33:40.603Z,5.10
2022-08-17T22:36:44.452Z,5.80
2022-08-17T22:39:57.313Z,5.70
2022-08-17T22:43:03.616Z,5.07
2022-08-17T22:46:08.771Z,5.15
2022-08-17T22:49:12.760Z,5.37
2022-08-17T22:52:15.819Z,6.25
2022-08-17T22:55:38.218Z,5.97
2022-08-17T22:59:14.743Z,5.50
2022-08-17T23:02:31.655Z,5.43
2022-08-17T23:05:35.317Z,6.10
2022-08-17T23:08:51.633Z,6.60
2022-08-17T23:11:58.725Z,5.50
2022-08-17T23:15:02.694Z,6.17
2022-08-17T23:18:06.673Z,6.30
2022-08-17T23:21:10.454Z,6.37
2022-08-17T23:24:22.825Z,6.20
2022-08-17T23:27:29.351Z,6.68
2022-08-17T23:30:35.510Z,6.77
2022-08-17T23:33:40.916Z,6.10
2022-08-17T23:36:51.314Z,6.50
2022-08-17T23:39:55.547Z,5.85
2022-08-17T23:42:58.397Z,6.12
2022-08-17T23:46:03.774Z,6.70
2022-08-17T23:49:06.941Z,7.80
2022-08-17T23:52:14.974Z,6.28
2022-08-17T23:55:19.277Z,6.87
2022-08-17T23:58:23.137Z,6.30
